Time;durP1;ratioP1;P1;durP2;ratioP2;P2;SDS_P1;SDS_P2;PMS_P1;PMS_P2;Temp;Humidity;BMP_temperature;BMP_pressure;BME280_temperature;BME280_humidity;BME280_pressure;Samples;Min_cycle;Max_cycle;Signal;HPM_P1;HPM_P2
2024/01/21 00:00:59;;;;;;;;;;;;;;;21.44;20.70;98990.50;4993994;28;957;-73
2024/01/21 00:03:24;;;;;;;;;;;;;;;21.66;20.37;98994.72;4977415;28;1892;-72
2024/01/21 00:05:50;;;;;;;;;;;;;;;21.66;20.20;98996.72;4977771;28;1065;-73
2024/01/21 00:08:15;;;;;;;;;;;;;;;21.40;20.54;98996.22;4978108;28;913;-73
2024/01/21 00:10:42;;;;;;;;;;;;;;;21.37;20.86;98996.25;4977911;28;1275;-73
2024/01/21 00:13:08;;;;;;;;;;;;;;;21.53;20.29;98999.31;4980134;28;1104;-73
2024/01/21 00:15:33;;;;;;;;;;;;;;;21.51;20.48;98990.44;5021965;28;926;-72
2024/01/21 00:17:59;;;;;;;;;;;;;;;21.34;20.82;98992.22;5038493;28;1446;-72
2024/01/21 00:20:24;;;;;;;;;;;;;;;21.64;20.42;98999.19;5021306;28;902;-72
2024/01/21 00:22:50;;;;;;;;;;;;;;;21.43;20.62;98994.56;5021057;28;1989;-73
2024/01/21 00:25:15;;;;;;;;;;;;;;;21.11;20.79;99001.31;5039166;28;951;-73
2024/01/21 00:27:41;;;;;;;;;;;;;;;20.98;20.88;99003.00;5003932;28;958;-73
2024/01/21 00:30:07;;;;;;;;;;;;;;;21.56;20.56;98998.47;5020887;28;958;-72
2024/01/21 00:32:33;;;;;;;;;;;;;;;21.25;20.68;99001.19;5020537;28;1496;-73
2024/01/21 00:34:58;;;;;;;;;;;;;;;21.38;20.35;98986.53;5004956;28;1061;-73
2024/01/21 00:37:24;;;;;;;;;;;;;;;21.43;20.37;98994.56;5021627;28;1087;-72
2024/01/21 00:39:49;;;;;;;;;;;;;;;21.45;20.42;98986.44;5047105;28;1440;-73
2024/01/21 00:42:15;;;;;;;;;;;;;;;21.40;20.67;98984.06;5056609;28;1906;-73
2024/01/21 00:44:40;;;;;;;;;;;;;;;21.24;20.63;98987.41;5039809;28;1076;-73
2024/01/21 00:47:06;;;;;;;;;;;;;;;21.52;20.34;98986.38;5020061;28;1453;-73
2024/01/21 00:49:31;;;;;;;;;;;;;;;21.43;20.40;98989.69;5043196;28;1408;-73
2024/01/21 00:51:57;;;;;;;;;;;;;;;21.70;19.91;98984.13;5019770;28;1256;-73
2024/01/21 00:54:22;;;;;;;;;;;;;;;21.38;20.50;98978.03;5019589;28;1274;-72
2024/01/21 00:56:48;;;;;;;;;;;;;;;21.55;20.26;98985.53;5036311;28;965;-73
2024/01/21 00:59:13;;;;;;;;;;;;;;;21.76;20.08;98982.47;5036291;28;1057;-73
2024/01/21 01:01:39;;;;;;;;;;;;;;;21.49;20.35;98984.38;5035855;28;1977;-73
2024/01/21 01:04:05;;;;;;;;;;;;;;;21.57;20.30;98986.72;5017759;28;1423;-73
2024/01/21 01:06:31;;;;;;;;;;;;;;;21.32;20.21;98989.00;5036192;28;1055;-73
2024/01/21 01:08:56;;;;;;;;;;;;;;;21.31;20.26;98993.88;5036055;28;969;-73
2024/01/21 01:11:22;;;;;;;;;;;;;;;21.24;20.41;98993.09;5037737;28;1080;-73
2024/01/21 01:13:47;;;;;;;;;;;;;;;21.22;20.38;98990.69;5020230;28;995;-73
2024/01/21 01:16:13;;;;;;;;;;;;;;;21.06;20.61;98993.25;5038136;28;1137;-73
2024/01/21 01:18:39;;;;;;;;;;;;;;;21.70;20.05;98981.31;5037704;28;1437;-73
2024/01/21 01:21:04;;;;;;;;;;;;;;;21.64;19.87;98994.31;5020988;28;922;-73
2024/01/21 01:23:30;;;;;;;;;;;;;;;21.07;20.73;98992.84;4986167;28;1973;-73
2024/01/21 01:25:55;;;;;;;;;;;;;;;20.88;20.83;98992.59;5003853;28;1486;-72
2024/01/21 01:28:21;;;;;;;;;;;;;;;21.26;20.34;98997.13;5004063;28;1115;-74
2024/01/21 01:30:46;;;;;;;;;;;;;;;21.30;20.52;99003.59;5037709;28;1200;-73
2024/01/21 01:33:12;;;;;;;;;;;;;;;21.46;20.08;98994.53;5003858;28;1118;-73
2024/01/21 01:35:37;;;;;;;;;;;;;;;21.44;20.03;98993.31;5019860;28;962;-73
2024/01/21 01:38:05;;;;;;;;;;;;;;;21.36;20.40;99000.31;4995796;28;977;-73
2024/01/21 01:40:31;;;;;;;;;;;;;;;21.45;20.16;98992.94;4974965;28;1387;-73
2024/01/21 01:42:58;;;;;;;;;;;;;;;21.49;20.15;98987.22;4976019;28;1987;-72
2024/01/21 01:45:24;;;;;;;;;;;;;;;21.06;20.87;98998.91;4958459;28;1403;-73
2024/01/21 01:47:49;;;;;;;;;;;;;;;21.19;20.44;99008.53;4995729;28;1112;-73
2024/01/21 01:50:15;;;;;;;;;;;;;;;21.32;20.25;99006.78;4996017;28;915;-73
2024/01/21 01:52:41;;;;;;;;;;;;;;;21.32;20.25;99006.78;4995042;28;1368;-73
2024/01/21 01:55:07;;;;;;;;;;;;;;;21.28;20.30;99010.84;4995659;28;958;-73
2024/01/21 01:57:33;;;;;;;;;;;;;;;21.61;20.09;99006.53;4995770;28;1006;-73
2024/01/21 01:59:58;;;;;;;;;;;;;;;21.60;19.98;99004.88;4994798;28;1287;-74
2024/01/21 02:02:24;;;;;;;;;;;;;;;21.55;19.92;98996.84;4978029;28;1977;-72
2024/01/21 02:04:49;;;;;;;;;;;;;;;21.59;20.29;98997.63;4995142;28;1077;-72
2024/01/21 02:07:15;;;;;;;;;;;;;;;21.70;19.80;99003.97;4975934;28;972;-73
2024/01/21 02:09:40;;;;;;;;;;;;;;;21.26;20.36;98996.31;4974608;28;969;-73
2024/01/21 02:12:06;;;;;;;;;;;;;;;21.38;20.21;99003.50;4995303;28;958;-73
2024/01/21 02:14:31;;;;;;;;;;;;;;;21.38;20.10;99009.16;4995406;28;1093;-73
2024/01/21 02:16:57;;;;;;;;;;;;;;;21.48;20.29;98997.72;4961721;28;1348;-73
2024/01/21 02:19:30;;;;;;;;;;;;;;;21.56;20.10;98999.28;4995357;28;981;-73
2024/01/21 02:21:55;;;;;;;;;;;;;;;21.31;20.42;99005.19;4978848;28;1910;-72
2024/01/21 02:24:21;;;;;;;;;;;;;;;21.46;20.05;99016.38;4995256;28;997;-73
2024/01/21 02:26:48;;;;;;;;;;;;;;;21.26;20.44;99014.09;4978979;28;1115;-73
2024/01/21 02:29:13;;;;;;;;;;;;;;;21.67;19.85;99016.16;4995186;28;978;-73
2024/01/21 02:31:39;;;;;;;;;;;;;;;21.43;20.02;99012.34;4961610;28;1706;-73
2024/01/21 02:34:04;;;;;;;;;;;;;;;21.06;20.77;99015.91;4994860;28;974;-73
2024/01/21 02:36:30;;;;;;;;;;;;;;;20.76;20.88;99020.16;4978106;28;1036;-73
2024/01/21 02:38:55;;;;;;;;;;;;;;;21.24;20.50;99022.22;5010095;28;973;-73
2024/01/21 02:41:21;;;;;;;;;;;;;;;21.18;20.66;99025.91;4998063;28;1242;-74
2024/01/21 02:43:46;;;;;;;;;;;;;;;20.44;20.52;98912.13;5030166;28;1910;-73
2024/01/21 02:46:12;;;;;;;;;;;;;;;21.40;20.10;99026.53;5032827;28;1479;-72
2024/01/21 02:48:37;;;;;;;;;;;;;;;20.94;20.31;98968.31;5034161;28;1190;-72
2024/01/21 02:51:03;;;;;;;;;;;;;;;21.17;20.24;99027.94;5000963;28;948;-72
2024/01/21 02:53:28;;;;;;;;;;;;;;;21.21;20.32;99028.72;4994375;28;1064;-73
2024/01/21 02:55:54;;;;;;;;;;;;;;;21.29;20.13;99030.22;4994900;28;940;-73
2024/01/21 02:58:20;;;;;;;;;;;;;;;21.17;20.57;99032.78;4994218;28;1303;-73
2024/01/21 03:00:45;;;;;;;;;;;;;;;21.40;20.01;99032.19;4993908;28;1504;-73
2024/01/21 03:03:11;;;;;;;;;;;;;;;21.68;19.66;99031.13;4994163;28;1998;-73
2024/01/21 03:05:36;;;;;;;;;;;;;;;21.26;20.13;99036.75;4964027;28;1090;-73
2024/01/21 03:08:02;;;;;;;;;;;;;;;21.30;20.10;99031.91;4955511;29;1084;-73
2024/01/21 03:10:28;;;;;;;;;;;;;;;21.11;20.44;99032.44;4939873;29;1074;-73
2024/01/21 03:12:53;;;;;;;;;;;;;;;21.39;19.92;99033.41;4955408;29;1051;-72
2024/01/21 03:15:19;;;;;;;;;;;;;;;21.40;20.23;99035.84;4951555;28;1533;-73
2024/01/21 03:17:44;;;;;;;;;;;;;;;21.49;20.20;99043.84;4974738;28;1041;-72
2024/01/21 03:20:10;;;;;;;;;;;;;;;21.66;19.91;99040.03;4939570;29;954;-73
2024/01/21 03:22:36;;;;;;;;;;;;;;;21.49;20.04;99030.47;4920322;29;1915;-73
2024/01/21 03:25:01;;;;;;;;;;;;;;;21.30;20.16;99034.72;4906654;29;1012;-72
2024/01/21 03:27:27;;;;;;;;;;;;;;;21.43;20.16;99039.88;4901572;29;1269;-73
2024/01/21 03:29:52;;;;;;;;;;;;;;;21.49;20.15;99038.97;4915971;29;1499;-73
2024/01/21 03:32:18;;;;;;;;;;;;;;;21.29;20.17;99041.56;4917420;29;985;-73
2024/01/21 03:34:44;;;;;;;;;;;;;;;21.16;20.36;99042.50;4915891;29;1385;-73
2024/01/21 03:37:10;;;;;;;;;;;;;;;21.40;20.23;99052.00;4886301;29;917;-73
2024/01/21 03:39:35;;;;;;;;;;;;;;;21.62;19.77;99050.59;4917371;29;1095;-72
2024/01/21 03:42:01;;;;;;;;;;;;;;;21.33;20.02;99062.19;4917133;29;1911;-73
2024/01/21 03:44:26;;;;;;;;;;;;;;;21.35;20.04;99061.78;4917394;29;1437;-73
2024/01/21 03:46:52;;;;;;;;;;;;;;;21.39;19.90;99061.72;4931294;29;995;-73
2024/01/21 03:49:18;;;;;;;;;;;;;;;21.44;19.91;99066.94;4924226;29;1039;-73
2024/01/21 03:51:43;;;;;;;;;;;;;;;21.51;19.82;99064.06;4953362;29;1504;-72
2024/01/21 03:54:09;;;;;;;;;;;;;;;21.41;20.06;99054.44;4942346;29;1298;-72
2024/01/21 03:56:34;;;;;;;;;;;;;;;21.54;19.77;99066.03;4911576;29;1315;-73
2024/01/21 03:59:00;;;;;;;;;;;;;;;21.53;20.03;99078.59;4915738;28;955;-73
2024/01/21 04:01:25;;;;;;;;;;;;;;;21.25;20.20;99068.31;5000997;28;972;-73
2024/01/21 04:03:51;;;;;;;;;;;;;;;21.29;20.16;99074.72;5017376;28;1914;-72
2024/01/21 04:06:16;;;;;;;;;;;;;;;21.22;20.14;99067.09;5000752;28;1050;-73
2024/01/21 04:08:42;;;;;;;;;;;;;;;21.54;20.04;99074.53;5015543;28;1582;-73
2024/01/21 04:11:07;;;;;;;;;;;;;;;21.45;20.25;99082.72;4984886;28;1214;-73
2024/01/21 04:13:33;;;;;;;;;;;;;;;21.46;19.78;99085.16;4984437;28;1015;-73
2024/01/21 04:15:59;;;;;;;;;;;;;;;21.44;19.93;99081.91;5000652;28;979;-73
2024/01/21 04:18:24;;;;;;;;;;;;;;;21.44;19.97;99087.56;5017329;28;1106;-73
2024/01/21 04:20:50;;;;;;;;;;;;;;;21.40;19.79;99080.31;4984431;28;1203;-73
2024/01/21 04:23:15;;;;;;;;;;;;;;;21.63;19.90;99093.88;5011837;28;1970;-74
2024/01/21 04:25:41;;;;;;;;;;;;;;;21.32;20.22;99094.56;5007013;28;1592;-73
2024/01/21 04:28:06;;;;;;;;;;;;;;;21.18;19.99;99103.13;5021183;28;936;-73
2024/01/21 04:30:32;;;;;;;;;;;;;;;20.93;20.69;99113.81;5000690;28;1246;-73
2024/01/21 04:32:58;;;;;;;;;;;;;;;21.08;20.26;99104.81;5001492;28;947;-73
2024/01/21 04:35:23;;;;;;;;;;;;;;;21.35;19.98;99106.25;5018944;28;933;-73
2024/01/21 04:37:48;;;;;;;;;;;;;;;21.49;19.68;99114.63;5001446;28;968;-73
2024/01/21 04:40:14;;;;;;;;;;;;;;;21.40;20.00;99123.63;5001379;28;1049;-73
2024/01/21 04:42:39;;;;;;;;;;;;;;;21.55;19.72;99129.94;5001477;28;1906;-73
2024/01/21 04:45:05;;;;;;;;;;;;;;;21.44;19.92;99123.56;5024878;28;1486;-72
2024/01/21 04:47:31;;;;;;;;;;;;;;;21.19;20.29;99137.88;5016204;28;920;-72
2024/01/21 04:49:56;;;;;;;;;;;;;;;21.44;19.92;99126.41;5000102;28;937;-73
2024/01/21 04:52:22;;;;;;;;;;;;;;;21.32;20.11;99142.69;5000126;28;1139;-72
2024/01/21 04:54:47;;;;;;;;;;;;;;;21.44;20.05;99137.72;4999911;28;949;-73
2024/01/21 04:57:13;;;;;;;;;;;;;;;21.32;20.01;99148.34;4999939;28;921;-73
2024/01/21 04:59:38;;;;;;;;;;;;;;;21.46;19.92;99146.63;4997066;28;1661;-73
2024/01/21 05:02:04;;;;;;;;;;;;;;;21.39;20.00;99146.66;4979301;28;1915;-73
2024/01/21 05:04:29;;;;;;;;;;;;;;;21.39;19.96;99163.66;4980423;28;1241;-73
2024/01/21 05:06:55;;;;;;;;;;;;;;;21.38;19.94;99145.06;4978945;28;1595;-72
2024/01/21 05:09:20;;;;;;;;;;;;;;;21.30;20.01;99153.63;4980338;28;1337;-72
2024/01/21 05:11:46;;;;;;;;;;;;;;;21.30;19.92;99147.97;4996708;28;953;-73
2024/01/21 05:14:11;;;;;;;;;;;;;;;21.54;19.67;99148.16;4996218;28;1275;-73
2024/01/21 05:16:40;;;;;;;;;;;;;;;21.43;20.02;99153.13;4996685;28;1003;-73
2024/01/21 05:19:05;;;;;;;;;;;;;;;21.35;20.17;99162.88;4980316;28;1039;-73
2024/01/21 05:21:31;;;;;;;;;;;;;;;21.15;20.12;99157.75;4960532;28;1239;-73
2024/01/21 05:23:56;;;;;;;;;;;;;;;21.05;20.20;99172.75;4962240;28;1914;-73
2024/01/21 05:26:22;;;;;;;;;;;;;;;21.16;20.06;99173.50;4957688;29;998;-73
2024/01/21 05:28:47;;;;;;;;;;;;;;;21.35;20.05;99179.84;4957256;29;927;-73
2024/01/21 05:31:13;;;;;;;;;;;;;;;21.25;20.02;99173.84;4957051;29;904;-73
2024/01/21 05:33:40;;;;;;;;;;;;;;;21.24;20.21;99183.56;4970051;28;919;-73
2024/01/21 05:36:06;;;;;;;;;;;;;;;21.58;19.75;99188.59;4979931;28;873;-72
2024/01/21 05:38:31;;;;;;;;;;;;;;;21.23;20.03;99193.25;4979991;28;1159;-73
2024/01/21 05:40:57;;;;;;;;;;;;;;;21.45;19.78;99191.13;4963355;28;818;-73
2024/01/21 05:43:22;;;;;;;;;;;;;;;21.40;20.04;99199.25;4979657;28;1997;-73
2024/01/21 05:45:48;;;;;;;;;;;;;;;21.36;19.86;99190.00;4996023;28;1000;-72
2024/01/21 05:48:13;;;;;;;;;;;;;;;21.44;19.76;99189.50;4979484;28;1124;-72
2024/01/21 05:50:39;;;;;;;;;;;;;;;21.41;19.80;99203.72;4995484;28;923;-72
2024/01/21 05:53:06;;;;;;;;;;;;;;;21.41;19.90;99209.38;5009266;28;783;-73
2024/01/21 05:55:32;;;;;;;;;;;;;;;21.79;19.71;99198.97;4986866;28;956;-72
2024/01/21 05:57:58;;;;;;;;;;;;;;;21.43;19.88;99204.88;4994903;28;1276;-72
2024/01/21 06:00:23;;;;;;;;;;;;;;;21.13;20.08;99211.09;5037140;28;1244;-72
2024/01/21 06:02:50;;;;;;;;;;;;;;;20.86;20.37;99216.50;5019737;28;1991;-72
2024/01/21 06:05:15;;;;;;;;;;;;;;;21.19;20.12;99217.97;4979131;28;1434;-72
2024/01/21 06:07:41;;;;;;;;;;;;;;;21.40;19.80;99221.88;4979554;28;985;-73
2024/01/21 06:10:07;;;;;;;;;;;;;;;21.30;20.01;99224.41;4979254;28;1036;-72
2024/01/21 06:12:32;;;;;;;;;;;;;;;21.47;20.01;99227.53;4979380;28;933;-72
2024/01/21 06:14:58;;;;;;;;;;;;;;;21.54;19.71;99227.47;4975726;28;1144;-72
2024/01/21 06:17:23;;;;;;;;;;;;;;;21.53;19.76;99226.66;4943752;28;1239;-72
2024/01/21 06:19:49;;;;;;;;;;;;;;;21.50;19.90;99238.00;4943551;28;1120;-73
2024/01/21 06:22:14;;;;;;;;;;;;;;;21.42;19.83;99225.13;4975786;28;1964;-72
2024/01/21 06:24:40;;;;;;;;;;;;;;;21.22;19.92;99245.44;4943477;28;1208;-71
2024/01/21 06:27:05;;;;;;;;;;;;;;;21.46;19.79;99251.41;4975890;28;1083;-72
2024/01/21 06:29:31;;;;;;;;;;;;;;;21.52;19.79;99258.25;4959843;28;1011;-73
2024/01/21 06:31:57;;;;;;;;;;;;;;;21.29;20.19;99245.38;4975605;28;959;-73
2024/01/21 06:34:22;;;;;;;;;;;;;;;21.40;19.90;99244.53;4975880;28;991;-72
2024/01/21 06:36:48;;;;;;;;;;;;;;;21.50;19.95;99255.00;5004263;28;940;-72
2024/01/21 06:39:13;;;;;;;;;;;;;;;21.17;20.04;99250.72;4998503;28;976;-72
2024/01/21 06:41:39;;;;;;;;;;;;;;;20.86;20.58;99249.63;4998170;28;1075;-72
2024/01/21 06:44:04;;;;;;;;;;;;;;;21.11;20.40;99249.53;4998607;28;952;-72
2024/01/21 06:46:30;;;;;;;;;;;;;;;21.32;20.13;99244.59;4973064;28;925;-72
2024/01/21 06:48:55;;;;;;;;;;;;;;;21.40;20.30;99250.19;4978535;28;1217;-73
2024/01/21 06:51:46;;;;;;;;;;;;;;;21.52;20.10;99252.56;4978225;28;984;-72
2024/01/21 06:54:12;;;;;;;;;;;;;;;21.52;19.94;99246.91;4965851;28;1451;-72
2024/01/21 06:56:38;;;;;;;;;;;;;;;21.45;20.03;99250.59;4962556;28;985;-72
2024/01/21 06:59:04;;;;;;;;;;;;;;;21.55;20.04;99249.72;4962657;28;1152;-72
2024/01/21 07:01:29;;;;;;;;;;;;;;;21.68;19.54;99255.69;4978561;28;969;-73
2024/01/21 07:03:55;;;;;;;;;;;;;;;21.42;19.89;99259.91;4961963;28;1918;-72
2024/01/21 07:06:20;;;;;;;;;;;;;;;21.54;19.87;99255.78;4978061;28;1292;-73
2024/01/21 07:08:46;;;;;;;;;;;;;;;21.45;20.15;99258.25;4978163;28;1143;-72
2024/01/21 07:11:11;;;;;;;;;;;;;;;21.55;20.01;99261.06;4955657;29;1219;-72
2024/01/21 07:13:38;;;;;;;;;;;;;;;21.29;20.29;99259.53;4955752;29;1169;-72
2024/01/21 07:16:03;;;;;;;;;;;;;;;21.42;19.84;99259.09;4939857;29;964;-73
2024/01/21 07:18:29;;;;;;;;;;;;;;;21.35;20.19;99259.13;4974873;28;1151;-72
2024/01/21 07:20:54;;;;;;;;;;;;;;;21.45;20.10;99263.94;4978291;28;973;-72
2024/01/21 07:23:20;;;;;;;;;;;;;;;21.29;19.96;99265.19;4939154;29;1902;-72
2024/01/21 07:25:48;;;;;;;;;;;;;;;21.38;20.23;99258.31;4955333;29;1001;-72
2024/01/21 07:28:15;;;;;;;;;;;;;;;21.53;19.84;99259.84;4898328;29;1214;-72
2024/01/21 07:30:40;;;;;;;;;;;;;;;21.26;19.90;99251.88;4882806;29;998;-72
2024/01/21 07:33:06;;;;;;;;;;;;;;;21.04;20.33;99244.72;4883140;29;1025;-72
2024/01/21 07:35:32;;;;;;;;;;;;;;;20.99;20.36;99247.97;4882685;29;1051;-73
2024/01/21 07:37:57;;;;;;;;;;;;;;;21.19;20.17;99251.94;4867532;29;973;-72
2024/01/21 07:40:23;;;;;;;;;;;;;;;21.17;20.12;99262.03;4898420;29;998;-72
2024/01/21 07:42:48;;;;;;;;;;;;;;;21.32;20.00;99267.25;4895773;29;1899;-72
2024/01/21 07:45:14;;;;;;;;;;;;;;;21.38;19.87;99270.44;4936474;29;916;-72
2024/01/21 07:47:39;;;;;;;;;;;;;;;21.00;20.29;99272.22;4904379;29;1021;-73
2024/01/21 07:50:05;;;;;;;;;;;;;;;21.44;19.91;99285.78;4920299;29;971;-72
2024/01/21 07:52:30;;;;;;;;;;;;;;;21.64;19.64;99277.56;4936362;29;1042;-73
2024/01/21 07:54:56;;;;;;;;;;;;;;;21.45;19.79;99292.25;4933463;28;1400;-72
2024/01/21 07:57:22;;;;;;;;;;;;;;;21.37;20.24;99293.53;4974751;28;975;-72
2024/01/21 07:59:47;;;;;;;;;;;;;;;21.47;19.77;99296.28;5002681;28;1301;-72
2024/01/21 08:02:13;;;;;;;;;;;;;;;21.51;19.67;99301.94;5001768;28;1902;-72
2024/01/21 08:04:38;;;;;;;;;;;;;;;21.45;19.90;99295.06;5001470;28;1218;-73
2024/01/21 08:07:04;;;;;;;;;;;;;;;21.57;19.81;99303.13;5001331;28;977;-72
2024/01/21 08:09:29;;;;;;;;;;;;;;;21.42;19.92;99293.09;5035731;28;910;-72
2024/01/21 08:11:55;;;;;;;;;;;;;;;21.39;20.11;99300.38;5017254;28;1048;-72
2024/01/21 08:14:20;;;;;;;;;;;;;;;21.72;19.75;99307.47;5017878;28;841;-72
2024/01/21 08:16:46;;;;;;;;;;;;;;;21.33;19.76;99305.66;5035310;28;954;-73
2024/01/21 08:19:11;;;;;;;;;;;;;;;20.98;20.42;99314.25;5017637;28;1233;-73
2024/01/21 08:21:37;;;;;;;;;;;;;;;21.04;20.16;99324.78;5035583;28;994;-72
2024/01/21 08:24:03;;;;;;;;;;;;;;;21.13;20.16;99321.47;5035151;28;1902;-72
2024/01/21 08:26:29;;;;;;;;;;;;;;;21.30;20.21;99315.00;5017952;28;1040;-73
2024/01/21 08:28:54;;;;;;;;;;;;;;;21.25;19.97;99318.22;5035440;28;966;-73
2024/01/21 08:31:20;;;;;;;;;;;;;;;21.62;19.64;99314.00;5017576;28;959;-72
2024/01/21 08:33:45;;;;;;;;;;;;;;;21.36;19.88;99311.72;4997001;28;1127;-72
2024/01/21 08:36:11;;;;;;;;;;;;;;;21.33;20.09;99319.81;5016817;28;938;-72
2024/01/21 08:38:38;;;;;;;;;;;;;;;21.46;19.85;99310.88;5000374;28;992;-72
2024/01/21 08:41:03;;;;;;;;;;;;;;;21.63;19.78;99321.28;5017211;28;1056;-73
2024/01/21 08:43:29;;;;;;;;;;;;;;;21.40;19.81;99318.16;4984343;28;1914;-72
2024/01/21 08:45:54;;;;;;;;;;;;;;;20.87;20.35;99313.50;4984182;28;1049;-72
2024/01/21 08:48:20;;;;;;;;;;;;;;;20.95;20.36;99326.41;4984141;28;1023;-72
2024/01/21 08:50:49;;;;;;;;;;;;;;;21.18;20.11;99321.06;4981064;28;1056;-72
2024/01/21 08:53:14;;;;;;;;;;;;;;;21.30;19.83;99326.31;4957852;29;1101;-72
2024/01/21 08:55:40;;;;;;;;;;;;;;;21.09;20.11;99337.69;4942313;29;1110;-72
2024/01/21 08:58:05;;;;;;;;;;;;;;;21.23;20.14;99328.31;4942172;29;1028;-72
2024/01/21 09:00:31;;;;;;;;;;;;;;;21.07;20.19;99337.28;4957916;29;937;-73
2024/01/21 09:02:56;;;;;;;;;;;;;;;21.20;20.09;99344.13;4957876;29;1891;-73
2024/01/21 09:05:22;;;;;;;;;;;;;;;21.25;20.35;99340.88;4972215;28;1356;-72
2024/01/21 09:07:47;;;;;;;;;;;;;;;21.29;19.99;99338.81;4961407;28;1015;-72
2024/01/21 09:10:14;;;;;;;;;;;;;;;21.40;19.80;99332.31;4961151;28;909;-72
2024/01/21 09:12:39;;;;;;;;;;;;;;;21.58;19.55;99336.69;4961130;28;1235;-72
2024/01/21 09:15:05;;;;;;;;;;;;;;;21.42;19.65;99339.19;4961006;28;1082;-73
2024/01/21 09:17:32;;;;;;;;;;;;;;;20.98;20.44;99336.88;4945239;28;1219;-73
2024/01/21 09:19:58;;;;;;;;;;;;;;;21.11;20.46;99335.25;4976841;28;1013;-72
2024/01/21 09:22:23;;;;;;;;;;;;;;;21.28;20.29;99327.91;4961004;28;1902;-73
2024/01/21 09:24:49;;;;;;;;;;;;;;;21.16;20.36;99331.19;5022438;28;1091;-72
2024/01/21 09:27:15;;;;;;;;;;;;;;;21.30;20.19;99325.50;5038059;28;1173;-72
2024/01/21 09:29:41;;;;;;;;;;;;;;;21.22;20.17;99324.69;5020675;28;1010;-72
2024/01/21 09:32:07;;;;;;;;;;;;;;;21.31;20.11;99322.25;5020261;28;952;-73
2024/01/21 09:34:32;;;;;;;;;;;;;;;21.13;20.39;99307.31;5020022;28;1061;-72
2024/01/21 09:36:58;;;;;;;;;;;;;;;21.32;20.00;99306.88;5020431;28;1205;-72
2024/01/21 09:39:25;;;;;;;;;;;;;;;21.38;19.71;99300.78;5004230;28;935;-72
2024/01/21 09:41:51;;;;;;;;;;;;;;;21.35;20.15;99298.78;5003761;28;1902;-72
2024/01/21 09:44:35;;;;;;;;;;;;;;;21.53;20.02;99294.63;4979364;28;1254;-72
2024/01/21 09:47:01;;;;;;;;;;;;;;;21.63;19.78;99292.97;4979838;28;1016;-72
2024/01/21 09:49:27;;;;;;;;;;;;;;;21.73;19.33;99303.41;4979714;28;1203;-72
2024/01/21 09:51:52;;;;;;;;;;;;;;;21.35;19.78;99304.44;4995695;28;1187;-72
2024/01/21 09:54:18;;;;;;;;;;;;;;;21.15;20.20;99304.91;4979833;28;1078;-72
2024/01/21 09:56:44;;;;;;;;;;;;;;;21.30;19.86;99315.00;4979370;28;1287;-73
2024/01/21 09:59:09;;;;;;;;;;;;;;;21.43;19.98;99311.69;4995812;28;1006;-72
2024/01/21 10:01:39;;;;;;;;;;;;;;;21.29;20.03;99323.84;4979383;28;958;-72
2024/01/21 10:04:05;;;;;;;;;;;;;;;21.23;20.13;99320.63;4979551;28;1926;-72
2024/01/21 10:06:31;;;;;;;;;;;;;;;21.41;20.05;99314.13;4979511;28;1082;-72
2024/01/21 10:09:18;;;;;;;;;;;;;;;21.33;20.09;99319.00;4979090;28;1060;-72
2024/01/21 10:11:48;;;;;;;;;;;;;;;21.18;20.00;99318.22;4979875;28;976;-72
2024/01/21 10:14:13;;;;;;;;;;;;;;;21.64;19.55;99317.22;4982186;28;2511;-72
2024/01/21 10:16:42;;;;;;;;;;;;;;;21.69;19.72;99308.28;5037319;28;934;-72
2024/01/21 10:19:10;;;;;;;;;;;;;;;21.55;19.90;99299.88;5019549;28;975;-72
2024/01/21 10:21:36;;;;;;;;;;;;;;;21.45;19.79;99312.06;5019297;28;956;-72
2024/01/21 10:24:02;;;;;;;;;;;;;;;21.28;20.10;99308.88;5036817;28;1910;-73
2024/01/21 10:26:27;;;;;;;;;;;;;;;21.08;20.27;99307.75;5019126;28;958;-73
2024/01/21 10:28:53;;;;;;;;;;;;;;;21.13;20.20;99303.69;5018894;28;979;-72
2024/01/21 10:31:18;;;;;;;;;;;;;;;21.50;19.97;99300.31;5037651;28;921;-72
2024/01/21 10:33:47;;;;;;;;;;;;;;;21.50;19.55;99294.63;5036653;28;960;-72
2024/01/21 10:36:13;;;;;;;;;;;;;;;21.56;19.67;99293.00;5019387;28;905;-72
2024/01/21 10:38:46;;;;;;;;;;;;;;;21.58;19.92;99296.22;5019167;28;937;-72
2024/01/21 10:41:11;;;;;;;;;;;;;;;21.06;20.20;99298.88;5018659;28;871;-73
2024/01/21 10:43:37;;;;;;;;;;;;;;;20.95;20.45;99292.47;5002506;28;1969;-72
2024/01/21 10:46:02;;;;;;;;;;;;;;;21.03;20.49;99294.03;5002818;28;982;-72
2024/01/21 10:48:29;;;;;;;;;;;;;;;21.11;20.18;99284.31;5003188;28;948;-72
2024/01/21 10:50:55;;;;;;;;;;;;;;;21.28;19.92;99283.41;5002436;28;1129;-73
2024/01/21 10:53:20;;;;;;;;;;;;;;;21.29;20.27;99285.00;5019126;28;967;-72
2024/01/21 10:55:46;;;;;;;;;;;;;;;21.50;19.71;99283.31;5018549;28;911;-72
2024/01/21 10:58:11;;;;;;;;;;;;;;;21.53;19.58;99276.84;5018072;28;940;-72
2024/01/21 11:00:37;;;;;;;;;;;;;;;21.46;19.63;99285.38;5018901;28;1028;-73
2024/01/21 11:03:25;;;;;;;;;;;;;;;21.62;19.64;99290.56;5018706;28;2056;-72
2024/01/21 11:05:52;;;;;;;;;;;;;;;21.56;19.59;99279.66;5018273;28;1018;-72
2024/01/21 11:08:17;;;;;;;;;;;;;;;21.43;19.77;99277.69;5002262;28;1034;-73
2024/01/21 11:10:44;;;;;;;;;;;;;;;20.94;20.35;99279.53;5018779;28;1126;-72
2024/01/21 11:13:09;;;;;;;;;;;;;;;21.06;20.33;99279.06;5002138;28;1120;-72
2024/01/21 11:15:35;;;;;;;;;;;;;;;21.14;20.30;99283.50;5018692;28;1050;-72
2024/01/21 11:18:10;;;;;;;;;;;;;;;21.16;20.14;99281.03;5035949;28;732;-72
2024/01/21 11:20:35;;;;;;;;;;;;;;;21.18;20.08;99272.94;5018357;28;754;-73
2024/01/21 11:23:01;;;;;;;;;;;;;;;21.26;20.18;99277.38;5018196;28;1898;-73
2024/01/21 11:25:33;;;;;;;;;;;;;;;21.09;20.07;99269.78;5033512;28;1226;-73
2024/01/21 11:28:03;;;;;;;;;;;;;;;21.23;19.96;99272.50;5017242;28;794;-73
2024/01/21 11:30:29;;;;;;;;;;;;;;;21.07;20.35;99272.19;5000910;28;951;-73
2024/01/21 11:32:57;;;;;;;;;;;;;;;21.37;19.67;99268.84;5016970;28;1010;-73
2024/01/21 11:35:23;;;;;;;;;;;;;;;21.31;20.16;99264.84;5001214;28;1217;-73
2024/01/21 11:37:52;;;;;;;;;;;;;;;21.60;19.54;99268.28;5030743;28;1014;-74
2024/01/21 11:40:18;;;;;;;;;;;;;;;21.69;19.69;99271.47;5017629;28;1047;-73
2024/01/21 11:42:49;;;;;;;;;;;;;;;21.35;19.93;99273.28;5017005;28;1969;-74
2024/01/21 11:45:15;;;;;;;;;;;;;;;21.44;19.88;99274.44;5017580;28;1296;-73
2024/01/21 11:47:40;;;;;;;;;;;;;;;21.47;19.77;99264.34;5000608;28;1013;-73
2024/01/21 11:50:06;;;;;;;;;;;;;;;21.33;20.07;99263.19;5016950;28;1034;-74
2024/01/21 11:52:31;;;;;;;;;;;;;;;21.61;19.75;99275.59;5016774;28;1040;-73
2024/01/21 11:54:57;;;;;;;;;;;;;;;21.54;19.64;99258.63;5033334;28;942;-73
2024/01/21 11:57:23;;;;;;;;;;;;;;;21.46;19.65;99251.41;5033148;28;1010;-73
2024/01/21 11:59:49;;;;;;;;;;;;;;;21.11;20.18;99256.00;5033142;28;1044;-73
2024/01/21 12:02:15;;;;;;;;;;;;;;;20.96;20.09;99249.59;5017357;28;1902;-73
2024/01/21 12:04:44;;;;;;;;;;;;;;;21.18;20.30;99255.16;5017908;28;1206;-74
2024/01/21 12:07:10;;;;;;;;;;;;;;;21.33;19.87;99246.19;5035830;28;952;-73
2024/01/21 12:09:36;;;;;;;;;;;;;;;21.09;20.00;99252.78;5038709;28;839;-73
2024/01/21 12:12:05;;;;;;;;;;;;;;;21.14;19.91;99243.88;5021649;28;941;-74
2024/01/21 12:14:30;;;;;;;;;;;;;;;21.55;19.49;99246.06;5021788;28;1017;-73
2024/01/21 12:16:56;;;;;;;;;;;;;;;21.64;19.67;99240.75;5005121;28;1244;-73
2024/01/21 12:19:24;;;;;;;;;;;;;;;21.47;19.83;99238.84;5021456;28;848;-74
2024/01/21 12:21:50;;;;;;;;;;;;;;;21.56;19.48;99242.03;5005360;28;1268;-74
2024/01/21 12:24:16;;;;;;;;;;;;;;;21.37;19.65;99234.06;5021501;28;1910;-74
2024/01/21 12:26:44;;;;;;;;;;;;;;;21.35;19.96;99237.31;5038748;28;925;-73
2024/01/21 12:29:09;;;;;;;;;;;;;;;21.37;19.66;99234.88;5004753;28;1389;-73
2024/01/21 12:31:36;;;;;;;;;;;;;;;21.53;19.76;99240.81;4997325;28;987;-73
2024/01/21 12:34:02;;;;;;;;;;;;;;;21.51;19.46;99239.63;4981019;28;1010;-73
2024/01/21 12:36:31;;;;;;;;;;;;;;;21.51;19.58;99245.31;4997404;28;1086;-74
2024/01/21 12:38:56;;;;;;;;;;;;;;;21.47;19.56;99241.69;4997608;28;964;-74
2024/01/21 12:41:22;;;;;;;;;;;;;;;21.65;19.58;99250.84;4942371;29;1216;-73
2024/01/21 12:43:49;;;;;;;;;;;;;;;21.55;19.62;99260.22;4957941;29;1970;-72
2024/01/21 12:46:21;;;;;;;;;;;;;;;21.59;19.42;99269.50;4958395;29;1057;-74
2024/01/21 12:48:47;;;;;;;;;;;;;;;21.37;19.85;99268.03;4958136;29;926;-73
2024/01/21 12:51:14;;;;;;;;;;;;;;;21.43;19.85;99275.69;4926506;29;962;-74
2024/01/21 12:53:40;;;;;;;;;;;;;;;21.64;19.61;99277.56;4885378;29;1062;-73